Time;durP1;ratioP1;P1;durP2;ratioP2;P2;SDS_P1;SDS_P2;PMS_P1;PMS_P2;Temp;Humidity;BMP_temperature;BMP_pressure;BME280_temperature;BME280_humidity;BME280_pressure;Samples;Min_cycle;Max_cycle;Signal;HPM_P1;HPM_P2
2021/03/24 00:01:39;;;;;;;24.30;16.02;;;;;;;1.46;76.88;96508.00;5001543;28;20026;-50
2021/03/24 00:04:04;;;;;;;21.42;14.23;;;;;;;1.43;76.85;96516.75;5001158;28;20034;-52
2021/03/24 00:06:31;;;;;;;21.65;14.77;;;;;;;1.40;76.80;96514.28;5014956;28;20015;-51
2021/03/24 00:08:57;;;;;;;18.85;15.40;;;;;;;1.40;76.39;96516.88;5010347;28;20075;-51
2021/03/24 00:11:22;;;;;;;16.75;14.88;;;;;;;1.39;77.00;96511.75;4999712;28;20029;-48
2021/03/24 00:13:49;;;;;;;17.40;13.90;;;;;;;1.37;76.94;96514.41;4991506;28;20026;-53
2021/03/24 00:16:14;;;;;;;19.02;14.45;;;;;;;1.33;77.21;96512.03;5006684;28;20156;-52
2021/03/24 00:18:40;;;;;;;20.50;15.35;;;;;;;1.28;77.46;96507.03;4994714;28;20054;-49
2021/03/24 00:21:10;;;;;;;18.65;14.90;;;;;;;1.26;77.83;96512.28;5001596;28;20367;-49
2021/03/24 00:23:36;;;;;;;16.02;14.30;;;;;;;1.25;77.75;96513.19;5008219;28;20018;-51
2021/03/24 00:26:01;;;;;;;16.02;11.85;;;;;;;1.23;77.91;96519.34;5010047;28;20026;-51
2021/03/24 00:28:27;;;;;;;13.68;12.27;;;;;;;1.23;77.79;96514.16;4993674;28;20026;-51
2021/03/24 00:30:53;;;;;;;16.70;14.40;;;;;;;1.20;77.25;96519.47;5004974;28;20033;-51
2021/03/24 00:33:23;;;;;;;25.08;19.17;;;;;;;1.22;77.06;96523.69;5008185;28;20026;-49
2021/03/24 00:35:50;;;;;;;26.85;21.60;;;;;;;1.23;77.37;96521.94;5001249;28;20022;-50
2021/03/24 00:38:18;;;;;;;22.67;18.52;;;;;;;1.18;77.61;96514.34;5013579;28;20026;-51
2021/03/24 00:40:47;;;;;;;24.40;18.75;;;;;;;1.12;78.27;96518.03;5010162;28;20018;-51
2021/03/24 00:43:13;;;;;;;24.88;17.33;;;;;;;1.11;77.93;96515.53;5011112;28;20060;-51
2021/03/24 00:45:40;;;;;;;24.25;17.27;;;;;;;1.07;78.19;96514.78;5006390;28;20049;-54
2021/03/24 00:48:10;;;;;;;23.02;18.25;;;;;;;1.11;77.82;96512.94;5009695;28;20026;-49
2021/03/24 00:50:36;;;;;;;20.70;16.02;;;;;;;1.04;78.12;96508.88;5007060;28;20597;-50
2021/03/24 00:53:03;;;;;;;26.20;16.10;;;;;;;1.03;77.90;96508.06;5008458;28;20071;-49
2021/03/24 00:55:28;;;;;;;20.70;16.02;;;;;;;1.06;77.71;96505.34;5011885;28;20151;-52
2021/03/24 00:57:54;;;;;;;24.13;17.83;;;;;;;1.03;78.13;96500.28;5002217;28;20030;-50
2021/03/24 01:00:24;;;;;;;27.65;19.60;;;;;;;0.99;78.79;96514.25;4998730;28;20026;-52
2021/03/24 01:02:50;;;;;;;24.95;18.52;;;;;;;0.96;78.17;96510.06;4996096;28;20022;-48
2021/03/24 01:05:18;;;;;;;29.83;20.70;;;;;;;0.94;78.18;96503.22;5006445;28;20037;-52
2021/03/24 01:07:47;;;;;;;28.45;17.20;;;;;;;0.93;78.39;96511.91;5033000;28;20022;-49
2021/03/24 01:10:15;;;;;;;23.70;17.95;;;;;;;0.85;78.07;96507.03;5011804;28;20056;-52
2021/03/24 01:12:41;;;;;;;20.42;16.30;;;;;;;0.80;78.90;96509.84;5011705;28;20053;-50
2021/03/24 01:15:09;;;;;;;20.75;15.88;;;;;;;0.85;78.45;96509.63;5014414;28;20060;-50
2021/03/24 01:17:34;;;;;;;20.42;15.95;;;;;;;0.82;78.82;96512.34;5013861;28;20036;-51
2021/03/24 01:20:00;;;;;;;27.88;17.38;;;;;;;0.79;79.04;96518.53;4995901;28;20490;-52
2021/03/24 01:22:26;;;;;;;22.67;17.40;;;;;;;0.80;78.78;96504.66;5005255;28;20026;-49
2021/03/24 01:24:53;;;;;;;19.20;14.95;;;;;;;0.79;78.38;96507.28;4998797;28;20022;-51
2021/03/24 01:27:19;;;;;;;19.52;14.80;;;;;;;0.79;78.23;96508.16;5002668;28;20044;-53
2021/03/24 01:29:44;;;;;;;17.60;14.80;;;;;;;0.76;78.38;96510.00;5015139;28;20428;-48
2021/03/24 01:32:10;;;;;;;16.90;13.73;;;;;;;0.75;79.16;96508.31;4998659;28;20504;-51
2021/03/24 01:34:36;;;;;;;17.08;13.85;;;;;;;0.74;78.90;96509.22;5008497;28;20030;-50
2021/03/24 01:37:01;;;;;;;18.73;14.15;;;;;;;0.66;79.44;96506.94;5079902;28;20026;-49
2021/03/24 01:39:28;;;;;;;21.30;15.70;;;;;;;0.59;79.65;96495.13;5014601;28;20034;-48
2021/03/24 01:41:53;;;;;;;21.15;16.33;;;;;;;0.56;79.97;96490.91;4996925;28;20045;-48
2021/03/24 01:44:19;;;;;;;28.17;19.92;;;;;;;0.61;79.38;96493.34;5001838;28;20029;-50
2021/03/24 01:46:47;;;;;;;22.33;16.35;;;;;;;0.61;79.25;96486.38;5013191;28;20029;-49
2021/03/24 01:49:31;;;;;;;24.60;18.52;;;;;;;0.58;80.33;96486.50;5010968;28;20030;-49
2021/03/24 01:52:06;;;;;;;29.67;19.80;;;;;;;0.61;79.67;96488.16;5010091;28;20055;-47
2021/03/24 01:54:39;;;;;;;36.13;24.65;;;;;;;0.57;80.23;96488.28;5002755;28;20052;-48
2021/03/24 01:57:15;;;;;;;26.95;20.38;;;;;;;0.57;80.83;96483.09;5011890;28;20029;-51
2021/03/24 01:59:41;;;;;;;27.90;18.30;;;;;;;0.60;79.50;96482.09;5002315;28;20104;-48
2021/03/24 02:02:16;;;;;;;28.48;19.85;;;;;;;0.62;79.56;96477.69;5082868;28;20034;-49
2021/03/24 02:04:42;;;;;;;24.85;20.27;;;;;;;0.65;78.97;96480.16;5073571;28;20022;-49
2021/03/24 02:07:11;;;;;;;26.52;19.42;;;;;;;0.64;79.25;96477.66;5003764;28;20077;-49
2021/03/24 02:09:40;;;;;;;28.55;18.98;;;;;;;0.57;79.45;96480.50;5036240;28;20031;-47
2021/03/24 02:12:29;;;;;;;22.08;17.23;;;;;;;0.50;79.30;96481.63;5005652;28;20494;-50
2021/03/24 02:15:07;;;;;;;28.35;16.92;;;;;;;0.52;79.22;96478.97;5000131;28;20030;-48
2021/03/24 02:17:38;;;;;;;22.45;16.05;;;;;;;0.55;79.61;96478.84;5016274;28;20030;-48
2021/03/24 02:20:03;;;;;;;25.10;16.17;;;;;;;0.54;79.96;96480.59;4993748;28;20600;-50
2021/03/24 02:22:35;;;;;;;19.38;15.10;;;;;;;0.52;79.36;96473.81;5039725;28;20084;-48
2021/03/24 02:25:22;;;;;;;20.83;15.50;;;;;;;0.50;80.18;96466.06;4995964;28;20030;-50
2021/03/24 02:27:52;;;;;;;17.00;13.05;;;;;;;0.49;80.30;96464.38;4993212;28;20073;-50
2021/03/24 02:30:23;;;;;;;20.17;13.70;;;;;;;0.41;81.05;96461.28;4993999;28;20030;-50
2021/03/24 02:32:53;;;;;;;18.65;14.40;;;;;;;0.43;80.18;96460.28;4997461;28;20038;-53
2021/03/24 02:35:26;;;;;;;29.38;17.60;;;;;;;0.45;80.52;96464.59;5007209;28;20022;-51
2021/03/24 02:37:53;;;;;;;23.77;16.63;;;;;;;0.43;79.53;96467.22;5012261;28;20030;-52
2021/03/24 02:40:20;;;;;;;24.83;17.48;;;;;;;0.41;79.76;96461.28;5007254;28;20018;-48
2021/03/24 02:42:49;;;;;;;23.35;17.45;;;;;;;0.36;80.71;96465.78;4993631;28;20058;-49
2021/03/24 02:45:20;;;;;;;19.48;14.50;;;;;;;0.35;80.34;96471.88;4993644;28;20056;-50
2021/03/24 02:47:47;;;;;;;23.45;15.48;;;;;;;0.38;80.42;96461.41;4994371;28;20018;-51
2021/03/24 02:50:14;;;;;;;19.50;14.00;;;;;;;0.31;80.64;96460.78;5008713;28;20049;-50
2021/03/24 02:52:40;;;;;;;19.35;14.48;;;;;;;0.31;80.13;96463.38;5004986;28;20041;-51
2021/03/24 02:55:07;;;;;;;25.58;14.98;;;;;;;0.32;80.43;96464.22;4995290;28;20066;-49
2021/03/24 02:57:34;;;;;;;21.58;14.20;;;;;;;0.34;79.88;96457.25;4999997;28;20489;-49
2021/03/24 02:59:59;;;;;;;22.55;14.57;;;;;;;0.33;79.98;96453.78;5000245;28;20034;-49
2021/03/24 03:02:28;;;;;;;16.60;14.35;;;;;;;0.33;80.19;96452.94;5011016;28;20026;-49
2021/03/24 03:05:01;;;;;;;22.50;14.63;;;;;;;0.28;80.23;96451.38;5012665;28;20362;-51
2021/03/24 03:07:35;;;;;;;20.08;14.27;;;;;;;0.27;79.73;96456.63;5014115;28;20108;-51
2021/03/24 03:10:03;;;;;;;17.95;13.43;;;;;;;0.28;79.94;96461.75;5010049;28;20037;-49
2021/03/24 03:12:38;;;;;;;21.88;13.75;;;;;;;0.31;79.71;96452.16;5012205;28;20074;-49
2021/03/24 03:15:18;;;;;;;13.70;12.13;;;;;;;0.29;80.19;96457.41;5005700;28;20038;-50
2021/03/24 03:17:49;;;;;;;17.35;12.93;;;;;;;0.18;80.61;96455.25;5010325;28;20026;-49
2021/03/24 03:20:34;;;;;;;18.70;12.82;;;;;;;0.10;81.10;96454.69;4993525;28;20037;-50
2021/03/24 03:23:14;;;;;;;17.30;11.93;;;;;;;0.12;80.90;96460.66;5005595;28;20019;-47
2021/03/24 03:25:45;;;;;;;18.23;12.50;;;;;;;0.20;80.01;96466.38;4990096;28;20038;-49
2021/03/24 03:28:16;;;;;;;13.02;11.57;;;;;;;0.18;81.02;96462.16;4995828;28;20025;-51
2021/03/24 03:30:46;;;;;;;15.65;12.30;;;;;;;0.16;80.36;96459.63;5010205;28;20033;-48
2021/03/24 03:33:13;;;;;;;15.45;12.40;;;;;;;0.13;80.40;96462.34;5005320;28;20030;-49
2021/03/24 03:35:40;;;;;;;14.88;10.98;;;;;;;0.12;80.92;96465.84;4998334;28;20022;-51
2021/03/24 03:38:14;;;;;;;14.52;11.30;;;;;;;0.08;81.10;96474.59;5006432;28;20041;-51
2021/03/24 03:40:42;;;;;;;13.40;10.55;;;;;;;0.08;80.87;96469.44;5009335;28;20055;-49
2021/03/24 03:43:11;;;;;;;14.80;11.30;;;;;;;-0.01;81.92;96479.25;5010959;28;20065;-51
2021/03/24 03:45:43;;;;;;;16.05;10.93;;;;;;;-0.08;81.72;96475.22;5012537;28;20026;-50
2021/03/24 03:48:11;;;;;;;16.58;12.02;;;;;;;-0.12;81.32;96478.78;5011732;28;20075;-50
2021/03/24 03:50:37;;;;;;;15.35;11.50;;;;;;;-0.14;81.30;96472.81;5012032;28;20054;-49
2021/03/24 03:53:12;;;;;;;18.35;12.40;;;;;;;-0.12;81.22;96475.38;5005239;28;20034;-48
2021/03/24 03:55:47;;;;;;;27.35;17.08;;;;;;;-0.10;81.19;96476.16;4993151;28;20040;-50
2021/03/24 03:58:51;;;;;;;67.97;44.55;;;;;;;-0.11;82.25;96469.28;4999786;28;20112;-51
2021/03/24 04:01:37;;;;;;;34.10;22.45;;;;;;;-0.13;83.11;96476.28;5074874;28;20124;-49
2021/03/24 04:04:16;;;;;;;17.35;12.30;;;;;;;-0.11;82.93;96466.69;4991817;28;20022;-53
2021/03/24 04:06:47;;;;;;;13.88;10.50;;;;;;;-0.10;82.48;96469.25;4995372;28;20080;-50
2021/03/24 04:09:14;;;;;;;21.98;13.60;;;;;;;-0.10;82.50;96465.78;5005223;28;20067;-52
2021/03/24 04:11:44;;;;;;;21.58;14.68;;;;;;;-0.09;81.70;96458.00;5010725;28;20488;-50
2021/03/24 04:14:14;;;;;;;41.17;26.83;;;;;;;-0.08;82.60;96462.25;5011099;28;20117;-52
2021/03/24 04:16:40;;;;;;;44.05;27.20;;;;;;;-0.09;82.24;96462.31;4997787;28;20158;-50
2021/03/24 04:19:08;;;;;;;36.45;23.50;;;;;;;-0.16;82.08;96457.38;5002247;28;20111;-50
2021/03/24 04:21:40;;;;;;;29.58;17.98;;;;;;;-0.16;82.29;96451.34;4994023;28;20031;-51
2021/03/24 04:24:14;;;;;;;19.20;12.88;;;;;;;-0.14;82.61;96454.69;5013021;28;20041;-50
2021/03/24 04:26:48;;;;;;;14.68;13.10;;;;;;;-0.15;82.37;96455.59;5010651;28;20033;-50
2021/03/24 04:29:24;;;;;;;19.70;12.57;;;;;;;-0.09;82.41;96457.13;4997335;28;20073;-52
2021/03/24 04:31:53;;;;;;;17.00;12.70;;;;;;;-0.10;82.74;96458.03;5004908;28;20032;-51
2021/03/24 04:34:21;;;;;;;21.75;13.48;;;;;;;-0.12;82.46;96460.66;5075589;28;20023;-47
2021/03/24 04:36:53;;;;;;;15.80;13.00;;;;;;;-0.20;83.00;96457.53;4999360;28;20022;-49
2021/03/24 04:39:28;;;;;;;19.35;14.13;;;;;;;0.05;82.03;96460.06;5014058;28;20121;-49
2021/03/24 04:41:57;;;;;;;20.52;14.73;;;;;;;0.05;82.35;96465.22;5010008;28;20435;-51
2021/03/24 04:44:26;;;;;;;21.55;15.95;;;;;;;-0.03;83.06;96462.06;5005098;28;20021;-52
2021/03/24 04:46:58;;;;;;;17.45;14.00;;;;;;;-0.10;83.12;96471.84;5011491;28;20018;-51
2021/03/24 04:49:26;;;;;;;17.05;13.98;;;;;;;-0.16;82.84;96466.88;5004044;28;20048;-51
2021/03/24 04:51:54;;;;;;;17.95;14.57;;;;;;;-0.21;82.38;96464.47;5095395;28;20047;-48
2021/03/24 04:54:30;;;;;;;27.92;20.75;;;;;;;-0.24;83.50;96466.31;5094975;28;20495;-50
2021/03/24 04:57:00;;;;;;;28.50;19.77;;;;;;;-0.24;83.07;96469.72;5083870;28;20029;-52
2021/03/24 04:59:30;;;;;;;28.67;19.08;;;;;;;-0.27;83.32;96466.44;5084583;28;20023;-49
2021/03/24 05:02:00;;;;;;;32.50;21.10;;;;;;;-0.28;83.10;96465.56;5087705;28;20017;-51
2021/03/24 05:04:36;;;;;;;37.85;26.35;;;;;;;-0.29;83.46;96471.66;5092445;28;20023;-52
2021/03/24 05:07:18;;;;;;;32.63;24.88;;;;;;;-0.34;83.76;96473.56;5094474;28;20016;-53
2021/03/24 05:09:47;;;;;;;31.75;24.35;;;;;;;-0.35;83.68;96477.06;5091380;28;20697;-49
2021/03/24 05:12:20;;;;;;;32.90;25.15;;;;;;;-0.37;82.98;96478.84;5091009;28;20366;-49
2021/03/24 05:14:59;;;;;;;23.80;18.23;;;;;;;-0.35;83.42;96477.06;5092017;28;20012;-50
2021/03/24 05:17:28;;;;;;;33.05;21.02;;;;;;;-0.36;83.32;96478.78;5096759;28;20012;-51
2021/03/24 05:20:04;;;;;;;31.80;20.17;;;;;;;-0.39;83.28;96481.50;5091599;28;20024;-50
2021/03/24 05:22:45;;;;;;;19.80;17.17;;;;;;;-0.37;83.50;96482.28;5087391;28;20031;-48
2021/03/24 05:25:17;;;;;;;26.55;19.05;;;;;;;-0.23;82.63;96483.53;5083402;28;20056;-50
2021/03/24 05:27:46;;;;;;;22.38;17.67;;;;;;;-0.28;82.85;96482.84;5090573;28;20028;-52
2021/03/24 05:30:26;;;;;;;21.73;17.08;;;;;;;-0.32;83.61;96480.38;5089839;28;20073;-52
2021/03/24 05:33:01;;;;;;;25.42;17.70;;;;;;;-0.45;84.06;96486.88;5090196;28;20028;-48
2021/03/24 05:36:01;;;;;;;23.90;16.50;;;;;;;-0.24;83.41;96485.25;5091329;28;20146;-49
2021/03/24 05:38:36;;;;;;;23.73;20.25;;;;;;;-0.35;84.64;96482.22;5074215;28;20028;-50
2021/03/24 05:41:24;;;;;;;27.17;19.48;;;;;;;-0.43;84.64;96485.09;5086542;28;20492;-51
2021/03/24 05:44:14;;;;;;;22.25;19.33;;;;;;;-0.40;85.42;96487.56;5090315;28;20032;-52
2021/03/24 05:47:04;;;;;;;34.25;21.80;;;;;;;-0.44;85.05;96491.16;5091177;28;20023;-52
2021/03/24 05:49:51;;;;;;;34.65;22.30;;;;;;;-0.38;83.79;96490.94;5084833;28;20036;-53
2021/03/24 05:52:43;;;;;;;34.80;21.42;;;;;;;-0.36;84.07;96494.31;5096928;28;20050;-50
2021/03/24 05:55:28;;;;;;;27.85;21.98;;;;;;;-0.34;84.27;96497.69;5087255;28;20044;-49
2021/03/24 05:58:00;;;;;;;37.63;24.83;;;;;;;-0.35;84.24;96506.34;5095925;28;20020;-52
2021/03/24 06:00:52;;;;;;;33.90;24.40;;;;;;;-0.36;83.83;96501.25;5091276;28;20438;-49
2021/03/24 06:03:24;;;;;;;29.42;23.88;;;;;;;-0.40;84.79;96500.50;5096762;28;20511;-51
2021/03/24 06:06:21;;;;;;;32.55;23.20;;;;;;;-0.35;84.61;96498.59;5096495;28;20425;-55
2021/03/24 06:09:24;;;;;;;32.35;23.00;;;;;;;-0.28;84.16;96503.56;5093656;28;20024;-49
2021/03/24 06:12:08;;;;;;;40.60;22.27;;;;;;;-0.28;84.67;96513.91;5086346;28;20025;-54
2021/03/24 06:14:53;;;;;;;31.58;21.95;;;;;;;-0.29;83.75;96510.47;5090582;28;20044;-48
2021/03/24 06:17:53;;;;;;;30.70;22.17;;;;;;;-0.32;83.76;96511.44;5076275;28;20031;-50
2021/03/24 06:20:30;;;;;;;76.20;45.08;;;;;;;-0.28;83.83;96519.09;5084978;28;20103;-50
2021/03/24 06:23:16;;;;;;;68.40;40.88;;;;;;;-0.22;84.65;96506.78;5086091;28;20020;-52
2021/03/24 06:25:46;;;;;;;118.72;59.95;;;;;;;-0.19;84.28;96513.56;5089407;28;20036;-53
2021/03/24 06:28:35;;;;;;;68.50;41.95;;;;;;;-0.15;84.22;96513.41;5082481;28;20016;-51
2021/03/24 06:31:18;;;;;;;65.90;38.35;;;;;;;-0.12;84.02;96515.03;5086490;28;20025;-52
2021/03/24 06:34:05;;;;;;;85.20;48.00;;;;;;;-0.11;84.11;96511.56;5089516;28;20024;-51
2021/03/24 06:36:58;;;;;;;120.28;63.10;;;;;;;-0.09;84.29;96516.66;5092700;28;20027;-52
2021/03/24 06:39:36;;;;;;;115.20;57.33;;;;;;;-0.06;83.64;96520.00;5077746;28;20435;-52
2021/03/24 06:42:01;;;;;;;83.85;45.45;;;;;;;-0.01;83.77;96517.22;5090547;28;20025;-51
2021/03/24 06:44:51;;;;;;;101.75;65.03;;;;;;;0.07;83.08;96516.94;5085592;28;20137;-50
2021/03/24 06:47:26;;;;;;;101.22;63.45;;;;;;;0.11;83.64;96518.50;5091431;28;20098;-49
2021/03/24 06:50:16;;;;;;;114.60;71.80;;;;;;;0.13;83.44;96519.31;5081097;28;20095;-53
2021/03/24 06:52:58;;;;;;;109.85;64.97;;;;;;;0.14;83.87;96526.19;4998299;28;20065;-50
2021/03/24 06:56:24;;;;;;;125.03;73.18;;;;;;;0.19;83.74;96519.09;4998759;28;20022;-53
2021/03/24 06:59:16;;;;;;;118.70;72.32;;;;;;;0.23;83.38;96519.81;5030371;28;20042;-50
2021/03/24 07:02:17;;;;;;;144.13;90.53;;;;;;;0.26;83.20;96519.72;5001457;28;20026;-49
2021/03/24 07:04:54;;;;;;;163.90;105.45;;;;;;;0.26;83.56;96519.72;5001402;28;20022;-50
2021/03/24 07:07:25;;;;;;;146.85;89.80;;;;;;;0.28;83.22;96526.50;5026038;28;20026;-50
2021/03/24 07:09:57;;;;;;;125.50;85.55;;;;;;;0.36;83.92;96520.19;5006086;28;20106;-50
2021/03/24 07:12:26;;;;;;;134.00;86.93;;;;;;;0.41;83.53;96526.88;4994982;28;20026;-51
2021/03/24 07:15:26;;;;;;;131.02;84.20;;;;;;;0.48;83.06;96524.06;4998628;28;20022;-52
2021/03/24 07:18:13;;;;;;;137.63;89.70;;;;;;;0.66;82.89;96528.53;4996181;28;20140;-51
2021/03/24 07:20:52;;;;;;;138.52;93.20;;;;;;;1.86;80.91;96520.97;4953334;28;20025;-50
2021/03/24 07:23:36;;;;;;;86.88;57.03;;;;;;;3.28;76.24;96523.91;5018025;28;20036;-52
2021/03/24 07:26:14;;;;;;;52.67;36.95;;;;;;;4.41;72.74;96519.00;5068097;28;20034;-52
2021/03/24 07:28:49;;;;;;;36.17;25.58;;;;;;;5.42;69.09;96521.22;5002579;28;20086;-53
2021/03/24 07:31:33;;;;;;;45.00;28.75;;;;;;;6.08;66.64;96523.44;4999260;28;20054;-54
2021/03/24 07:34:01;;;;;;;31.08;17.80;;;;;;;6.81;64.53;96527.66;4998948;28;20080;-53
2021/03/24 07:36:42;;;;;;;15.00;11.18;;;;;;;7.15;61.79;96533.31;5001134;28;20034;-54
2021/03/24 07:39:24;;;;;;;14.88;10.95;;;;;;;7.82;59.77;96522.84;5000958;28;20053;-53
2021/03/24 07:42:15;;;;;;;13.15;9.85;;;;;;;7.92;58.28;96521.31;5002258;28;20086;-54
2021/03/24 07:45:04;;;;;;;11.75;8.27;;;;;;;8.37;55.64;96522.63;5003296;28;20031;-55
2021/03/24 07:47:58;;;;;;;12.20;8.27;;;;;;;9.17;54.88;96521.34;5004710;28;20030;-55
2021/03/24 07:50:42;;;;;;;11.77;8.45;;;;;;;9.34;52.98;96516.63;5003433;28;20096;-55
2021/03/24 07:53:54;;;;;;;12.52;8.77;;;;;;;9.85;53.30;96518.09;5000871;28;20509;-55
2021/03/24 07:56:40;;;;;;;9.57;6.32;;;;;;;10.26;51.12;96519.28;5005994;28;20549;-52
2021/03/24 07:59:34;;;;;;;9.45;6.32;;;;;;;10.64;49.86;96512.00;5003106;28;20032;-50
2021/03/24 08:02:37;;;;;;;10.15;6.40;;;;;;;10.83;49.21;96513.16;5002758;28;20053;-47
2021/03/24 08:05:27;;;;;;;10.45;6.57;;;;;;;10.91;48.18;96507.28;4998793;28;20034;-52
2021/03/24 08:07:59;;;;;;;11.80;6.88;;;;;;;10.45;48.96;96517.88;4990648;28;20033;-50
2021/03/24 08:10:34;;;;;;;11.13;8.52;;;;;;;10.49;50.12;96514.03;5006908;28;20038;-51
2021/03/24 08:13:06;;;;;;;14.40;9.13;;;;;;;10.84;48.38;96512.22;4994872;28;20037;-51
2021/03/24 08:15:34;;;;;;;11.57;6.85;;;;;;;10.58;49.12;96509.84;4997621;28;20079;-51
2021/03/24 08:18:00;;;;;;;10.25;7.90;;;;;;;10.65;49.94;96510.19;5002870;28;20413;-51
2021/03/24 08:20:50;;;;;;;9.45;7.15;;;;;;;10.81;49.97;96509.81;5001546;28;20034;-51
2021/03/24 08:23:27;;;;;;;10.75;7.15;;;;;;;11.06;48.55;96511.31;5014644;28;20037;-55
2021/03/24 08:26:06;;;;;;;9.43;8.43;;;;;;;10.98;48.57;96513.75;5010220;28;20022;-50
2021/03/24 08:28:39;;;;;;;11.27;8.48;;;;;;;11.03;47.42;96508.94;5012129;28;20018;-52
2021/03/24 08:31:18;;;;;;;10.95;9.57;;;;;;;10.89;48.16;96510.88;5012775;28;20022;-51
2021/03/24 08:34:07;;;;;;;12.05;10.48;;;;;;;10.68;47.10;96512.59;5005750;28;20027;-49
2021/03/24 08:36:48;;;;;;;15.48;11.63;;;;;;;11.06;47.21;96505.22;5014273;28;20030;-53
2021/03/24 08:39:29;;;;;;;10.93;8.75;;;;;;;11.30;45.81;96515.53;5004160;28;20022;-52
2021/03/24 08:43:00;;;;;;;10.60;7.60;;;;;;;11.87;44.18;96505.50;4913622;27;20422;-55
2021/03/24 08:45:38;;;;;;;7.88;6.45;;;;;;;11.84;43.98;96512.88;4957580;28;83352;-52
2021/03/24 08:48:14;;;;;;;9.80;5.88;;;;;;;11.89;41.96;96513.31;5069211;28;20036;-54
2021/03/24 08:50:50;;;;;;;8.35;5.95;;;;;;;11.64;43.40;96514.53;5069966;28;20056;-55
2021/03/24 08:53:53;;;;;;;8.13;5.78;;;;;;;11.95;43.31;96512.78;5065883;27;20044;-52
2021/03/24 08:56:47;;;;;;;8.43;6.38;;;;;;;11.95;42.87;96515.41;5066444;28;20041;-52
2021/03/24 08:59:33;;;;;;;7.57;5.03;;;;;;;11.90;41.50;96526.34;5066512;28;20036;-53
2021/03/24 09:02:16;;;;;;;5.85;4.72;;;;;;;12.21;40.82;96516.84;5055291;27;20040;-55
2021/03/24 09:04:58;;;;;;;7.38;4.95;;;;;;;12.38;39.71;96515.38;5068719;28;20028;-52
2021/03/24 09:07:48;;;;;;;6.68;5.03;;;;;;;12.51;40.30;96523.91;5068811;27;20043;-54
2021/03/24 09:10:27;;;;;;;6.57;4.53;;;;;;;12.55;39.37;96517.41;5064408;28;20056;-54
2021/03/24 09:13:12;;;;;;;6.57;4.88;;;;;;;12.57;38.94;96519.88;5068944;28;20059;-57
2021/03/24 09:16:06;;;;;;;5.38;4.10;;;;;;;12.94;38.32;96519.28;5063069;28;20195;-55
2021/03/24 09:18:47;;;;;;;5.20;4.18;;;;;;;12.86;37.61;96511.22;5060491;28;20912;-57
2021/03/24 09:21:22;;;;;;;4.10;3.72;;;;;;;13.36;36.76;96515.56;5067935;28;20978;-58
2021/03/24 09:24:22;;;;;;;4.90;4.38;;;;;;;13.26;36.50;96514.75;5069037;28;20029;-57
2021/03/24 09:27:11;;;;;;;4.18;3.78;;;;;;;13.63;36.14;96510.56;5065321;28;20020;-59
2021/03/24 09:29:41;;;;;;;5.10;4.32;;;;;;;13.88;36.65;96511.81;5066322;28;20020;-58
2021/03/24 09:32:29;;;;;;;6.35;5.15;;;;;;;14.44;34.22;96507.44;5069822;28;20052;-60
2021/03/24 09:35:13;;;;;;;5.28;4.75;;;;;;;14.55;34.36;96505.56;5068827;28;20036;-57
2021/03/24 09:37:47;;;;;;;6.75;4.32;;;;;;;14.58;33.48;96510.56;5064533;27;20043;-59
2021/03/24 09:40:24;;;;;;;5.45;4.47;;;;;;;14.42;34.82;96506.75;5069997;28;20149;-60
2021/03/24 09:42:54;;;;;;;6.25;4.15;;;;;;;14.44;35.13;96511.88;5088609;27;20052;-59
2021/03/24 09:45:23;;;;;;;10.20;4.40;;;;;;;14.25;35.81;96510.97;5087334;27;20052;-58
2021/03/24 09:48:10;;;;;;;9.30;4.25;;;;;;;14.61;33.38;96502.34;5090242;27;20498;-58
2021/03/24 09:50:43;;;;;;;4.75;4.15;;;;;;;14.47;36.34;96508.94;5089246;27;20055;-58
2021/03/24 09:53:08;;;;;;;7.28;4.78;;;;;;;15.00;34.83;96498.66;5083429;27;20024;-57
2021/03/24 09:55:40;;;;;;;7.75;5.05;;;;;;;15.21;33.54;96503.66;5078218;28;20386;-57
2021/03/24 09:58:24;;;;;;;9.40;4.63;;;;;;;15.17;32.55;96497.84;5075430;28;20870;-59
2021/03/24 10:01:08;;;;;;;5.72;4.40;;;;;;;15.11;33.33;96503.72;5049303;28;20042;-57
2021/03/24 10:03:55;;;;;;;7.35;4.95;;;;;;;14.95;32.74;96492.97;5099692;28;20016;-56
2021/03/24 10:06:26;;;;;;;10.95;7.78;;;;;;;15.22;32.94;96494.72;5092798;28;20072;-56
2021/03/24 10:09:34;;;;;;;9.50;5.18;;;;;;;15.66;32.64;96487.78;5096733;28;20028;-57
2021/03/24 10:12:06;;;;;;;11.90;5.35;;;;;;;16.11;32.09;96483.31;5072117;28;20500;-55
2021/03/24 10:14:35;;;;;;;7.57;5.47;;;;;;;16.93;31.24;96476.69;5094478;28;20060;-57
2021/03/24 10:17:26;;;;;;;6.57;5.43;;;;;;;16.86;30.11;96474.66;5097348;28;20395;-58
2021/03/24 10:20:15;;;;;;;6.57;5.70;;;;;;;17.07;30.74;96469.91;5094055;28;20549;-58
2021/03/24 10:22:45;;;;;;;7.55;5.88;;;;;;;16.98;30.01;96461.06;5096657;28;20028;-57
2021/03/24 10:25:19;;;;;;;8.18;5.32;;;;;;;16.43;30.43;96457.88;5098325;28;20020;-57
2021/03/24 10:27:49;;;;;;;9.60;6.27;;;;;;;16.91;29.83;96458.22;5096360;28;20023;-56
2021/03/24 10:30:14;;;;;;;9.38;5.97;;;;;;;17.45;29.02;96459.63;5094401;28;20031;-57
2021/03/24 10:32:49;;;;;;;10.77;6.65;;;;;;;16.76;29.93;96458.00;5095614;28;20525;-56
2021/03/24 10:35:29;;;;;;;7.05;6.10;;;;;;;16.33;32.31;96452.69;5097201;28;20115;-56
2021/03/24 10:38:21;;;;;;;11.27;6.68;;;;;;;16.29;31.68;96444.22;5097148;28;20056;-57
2021/03/24 10:41:29;;;;;;;12.30;6.90;;;;;;;16.64;32.07;96446.84;5097479;28;20068;-56
2021/03/24 10:44:04;;;;;;;10.00;6.53;;;;;;;16.23;31.39;96444.84;5081778;28;20138;-58
2021/03/24 10:46:32;;;;;;;;;;;;;;;16.72;30.78;96446.03;5093586;28;20111;-56
2021/03/24 10:49:01;;;;;;;13.73;7.70;;;;;;;17.22;30.46;96443.50;5096449;28;20403;-53
2021/03/24 10:51:39;;;;;;;12.95;6.20;;;;;;;16.90;30.61;96444.06;5097032;28;20028;-56
2021/03/24 10:54:19;;;;;;;9.52;6.82;;;;;;;17.01;30.03;96437.63;5096028;28;20020;-55
2021/03/24 10:56:47;;;;;;;10.07;6.43;;;;;;;18.25;27.85;96435.88;5097589;28;20028;-57
2021/03/24 10:59:23;;;;;;;8.20;6.47;;;;;;;17.46;30.13;96434.66;5094975;28;20051;-56
2021/03/24 11:01:59;;;;;;;9.73;6.88;;;;;;;17.51;28.49;96429.69;5091901;28;20028;-53
2021/03/24 11:04:47;;;;;;;13.55;6.50;;;;;;;17.07;30.53;96422.84;5092586;28;20689;-57
2021/03/24 11:07:16;;;;;;;8.02;6.05;;;;;;;17.67;28.97;96420.84;5095888;28;20016;-57
2021/03/24 11:09:54;;;;;;;9.10;5.93;;;;;;;17.35;28.54;96427.03;5093247;28;20572;-56
2021/03/24 11:12:26;;;;;;;10.27;5.97;;;;;;;17.80;29.24;96414.19;5092020;28;20107;-54
2021/03/24 11:15:03;;;;;;;6.93;5.88;;;;;;;18.48;28.22;96411.97;5092559;28;20483;-57
2021/03/24 11:17:38;;;;;;;9.13;6.20;;;;;;;18.75;28.97;96415.16;5092846;28;20035;-57
2021/03/24 11:20:11;;;;;;;9.02;5.78;;;;;;;18.81;25.96;96411.78;5093596;28;20024;-58
2021/03/24 11:22:50;;;;;;;7.53;5.63;;;;;;;18.82;27.39;96405.44;5093385;28;20024;-58
2021/03/24 11:25:16;;;;;;;6.20;5.60;;;;;;;19.07;26.58;96415.97;5094945;28;20048;-57
2021/03/24 11:27:56;;;;;;;9.30;6.28;;;;;;;19.02;26.35;96407.66;5088069;28;20700;-58
2021/03/24 11:30:40;;;;;;;10.10;5.13;;;;;;;18.92;25.94;96404.38;5093603;28;20521;-56
2021/03/24 11:33:21;;;;;;;9.60;6.22;;;;;;;18.07;28.48;96404.97;5091679;28;20036;-58
2021/03/24 11:35:59;;;;;;;12.70;6.00;;;;;;;18.08;26.82;96411.94;5093538;28;20174;-58
2021/03/24 11:38:40;;;;;;;13.25;5.75;;;;;;;17.94;28.87;96404.66;5088569;28;20129;-58
2021/03/24 11:41:11;;;;;;;10.68;5.90;;;;;;;18.45;27.64;96391.81;5090027;28;20059;-57
2021/03/24 11:43:41;;;;;;;7.03;5.20;;;;;;;18.26;28.32;96392.22;5092261;28;20020;-57
2021/03/24 11:46:53;;;;;;;5.45;4.90;;;;;;;18.54;27.41;96399.75;5094339;28;20105;-57
2021/03/24 11:49:48;;;;;;;13.27;6.03;;;;;;;18.23;29.38;96401.41;5095367;28;20107;-58
2021/03/24 11:52:39;;;;;;;12.73;5.45;;;;;;;18.43;26.62;96387.66;5093493;28;20376;-58
2021/03/24 11:55:35;;;;;;;10.48;5.53;;;;;;;18.72;26.12;96391.50;5089840;28;20408;-58
2021/03/24 11:58:24;;;;;;;12.02;5.55;;;;;;;18.66;27.12;96382.38;5091962;28;20035;-58
2021/03/24 12:01:11;;;;;;;9.05;6.30;;;;;;;19.55;27.14;96373.03;5089534;28;20488;-58
2021/03/24 12:04:18;;;;;;;10.35;6.18;;;;;;;19.27;26.84;96373.63;5092452;28;20028;-58
2021/03/24 12:07:02;;;;;;;10.13;5.38;;;;;;;19.67;26.73;96377.91;5081541;28;20047;-57
2021/03/24 12:09:30;;;;;;;7.28;6.47;;;;;;;20.14;26.15;96371.44;5092119;28;20031;-58